Airfield :
LOGIN :

Register | Disclaimer

   EN    FR    IT 

 










Legend :    VFR   Marginal VFR   IFR   Intensive IFR   Very Intensive IFR
Visi :
Ceiling :
>= 8 km
>= 3000ft
5 to 8 km
1000 to 3000 ft
1500m to 5 km
500 to 1000 ft
800 to 1500m
200 to 500 ft
< 800m
< 200 ft
Symbols :   Thunderstorms  Fog  Heavy snow  Heavy precipitations  Wind > 20 kt
SIGMETs :     Misc.  Thunderstorms  Icing  Turbulence  Mountain Waves  Volcanic Ashes







- Airport Elevation : 297 ft
- IATA code : UIP
- Download approach charts


LFRQ - Quimper Pluguffan

CURRENT METAR :
  • 170730Z AUTO 25008KT 1000 R28/1500U BR VV/// 18/17 Q1016 TEMPO RA

EXPIRED METARs :
  • 170700Z AUTO 25008KT 1200 1000 R28/1700D -RA BR VV/// ///TCU 18/17 Q1016 BECMG 2000 -RA BR OVC003
  • 170630Z AUTO 25011KT 1400 R28/1900N -RA BR VV/// 17/17 Q1016 BECMG 2000 -RA BR OVC003
  • 170600Z AUTO 25012KT 1400 1300 R28/1900U -RA BR VV/// 17/17 Q1015 BECMG 2000 -RA BR OVC003
  • 170530Z AUTO 24012KT 1300 R28/1700U -RA BR VV/// 17/17 Q1015 BECMG 2000 -RA BR OVC003
  • 170500Z AUTO 24011KT 1300 R28/1600D BR VV/// 18/17 Q1015

TAF AMD TAF LFRQ
Valid from the 17 at 06:00 until the 17 at 15:00 UTC


170647Z 1706/1715 25011KT 9999 BKN015
TEMPO 1706/1715 3000 RA BR OVC003
PROB30
TEMPO 1706/1715 1300 RA VV///
No reported NOTAMs for that airfield.



MET'MAP, your aeronautical weather chart ! - Copyright ORBIFLY December 2007 - Disclaimer

ORBIFLY MET'MAP TEAM :

Programming & Development : Alexandra Zaïnal
Concept & Development : Baudouin d'Aumeries
Co-Development & Prog : Marc-Olivier Méhu
Technical & hardware support : Manuel Goepfert

Contact : metmap@orbifly.com




SOURCES & CREDITS :

   NOAA